createdAt,value
2023-03-29T00:05:42.868Z,5.10
2023-03-29T00:15:42.797Z,5.09
2023-03-29T00:25:43.028Z,5.10
2023-03-29T00:35:43.273Z,5.30
2023-03-29T00:45:43.407Z,5.40
2023-03-29T00:55:43.507Z,5.57
2023-03-29T01:05:43.665Z,5.60
2023-03-29T01:15:43.769Z,5.70
2023-03-29T01:25:43.916Z,6.00
2023-03-29T01:35:44.117Z,6.28
2023-03-29T01:45:44.308Z,6.71
2023-03-29T01:55:44.468Z,6.99
2023-03-29T02:05:44.596Z,6.98
2023-03-29T02:15:44.820Z,7.12
2023-03-29T02:25:44.958Z,7.47
2023-03-29T02:35:45.211Z,7.59
2023-03-29T02:45:45.348Z,7.52
2023-03-29T02:55:45.557Z,7.32
2023-03-29T03:05:45.790Z,7.62
2023-03-29T03:15:45.994Z,7.67
2023-03-29T03:25:46.972Z,8.11
2023-03-29T03:35:46.491Z,8.33
2023-03-29T03:45:46.510Z,8.48
2023-03-29T03:55:46.590Z,8.55
2023-03-29T04:05:46.834Z,8.75
2023-03-29T04:15:47.881Z,8.93
2023-03-29T04:25:47.146Z,8.58
2023-03-29T04:35:47.314Z,8.51
2023-03-29T04:45:47.436Z,8.17
2023-03-29T04:55:47.634Z,8.18
2023-03-29T05:05:47.874Z,8.15
2023-03-29T05:15:48.935Z,8.25
2023-03-29T05:25:48.301Z,8.40
2023-03-29T05:35:48.500Z,8.39
2023-03-29T05:45:48.715Z,8.54
2023-03-29T05:55:48.843Z,8.66
2023-03-29T06:05:49.678Z,8.99
2023-03-29T06:15:49.211Z,9.35
2023-03-29T06:25:49.579Z,9.78
2023-03-29T06:35:49.449Z,9.96
2023-03-29T06:45:49.663Z,10.17
2023-03-29T06:55:50.096Z,10.63
2023-03-29T07:05:49.968Z,11.03
2023-03-29T07:15:50.154Z,10.91
2023-03-29T07:25:50.373Z,10.96
2023-03-29T07:35:51.509Z,10.91
2023-03-29T07:45:50.763Z,10.78
2023-03-29T07:55:50.818Z,11.10
2023-03-29T08:05:51.067Z,11.38
2023-03-29T08:15:51.237Z,11.36
2023-03-29T08:25:51.676Z,11.39
2023-03-29T08:35:51.625Z,11.65
2023-03-29T08:45:51.988Z,12.05
2023-03-29T08:55:51.924Z,12.16
2023-03-29T09:05:52.148Z,12.11
2023-03-29T09:15:52.340Z,12.41
2023-03-29T09:25:54.125Z,12.70
2023-03-29T09:35:52.660Z,13.56
2023-03-29T09:45:52.840Z,13.76
2023-03-29T09:55:52.948Z,13.56
2023-03-29T10:05:53.218Z,14.37
2023-03-29T10:15:53.295Z,14.32
2023-03-29T10:25:53.797Z,14.52
2023-03-29T10:35:53.695Z,14.68
2023-03-29T10:45:55.048Z,14.39
2023-03-29T10:55:53.877Z,14.54
2023-03-29T11:05:54.316Z,15.72
2023-03-29T11:15:54.272Z,17.91
2023-03-29T11:25:54.533Z,16.95
2023-03-29T11:35:54.623Z,17.88
2023-03-29T11:45:54.780Z,18.02
2023-03-29T11:55:54.980Z,17.51
2023-03-29T12:05:55.339Z,17.43
2023-03-29T12:15:55.290Z,16.83
2023-03-29T12:25:55.514Z,16.62
2023-03-29T12:35:55.705Z,16.70
2023-03-29T12:45:56.074Z,16.37
2023-03-29T12:55:56.109Z,16.25
2023-03-29T13:05:56.394Z,16.16
2023-03-29T13:15:56.412Z,14.91
2023-03-29T13:25:56.554Z,14.99
2023-03-29T13:35:56.910Z,14.88
2023-03-29T13:45:56.888Z,14.62
2023-03-29T13:55:57.147Z,14.72
2023-03-29T14:05:57.444Z,14.84
2023-03-29T14:15:57.402Z,14.62
2023-03-29T14:25:57.616Z,14.54
2023-03-29T14:35:57.918Z,14.64
2023-03-29T14:45:58.001Z,15.82
2023-03-29T14:55:58.069Z,15.52
2023-03-29T15:05:58.516Z,15.75
2023-03-29T15:15:58.853Z,15.61
2023-03-29T15:25:58.794Z,16.96
2023-03-29T15:35:59.029Z,15.26
2023-03-29T15:45:58.931Z,15.79
2023-03-29T15:55:59.092Z,15.36
2023-03-29T16:05:59.413Z,16.85
2023-03-29T16:15:59.451Z,17.08
2023-03-29T16:25:59.676Z,15.94
2023-03-29T16:35:59.911Z,15.61
2023-03-29T16:46:00.404Z,15.67
2023-03-29T16:56:00.483Z,15.82
2023-03-29T17:06:00.675Z,14.37
2023-03-29T17:16:01.274Z,13.83
2023-03-29T17:26:01.007Z,13.43
2023-03-29T17:36:01.357Z,13.29
2023-03-29T17:46:01.687Z,12.88
2023-03-29T17:56:01.628Z,13.69
2023-03-29T18:06:02.298Z,13.47
2023-03-29T18:16:02.289Z,12.81
2023-03-29T18:26:02.028Z,12.41
2023-03-29T18:36:02.301Z,12.13
2023-03-29T18:46:02.566Z,12.09
2023-03-29T18:56:02.622Z,14.67
2023-03-29T19:06:02.753Z,15.19
2023-03-29T19:16:02.897Z,14.91
2023-03-29T19:26:03.278Z,15.35
2023-03-29T19:36:03.414Z,15.56
2023-03-29T19:46:03.455Z,15.74
2023-03-29T19:56:03.567Z,15.64
2023-03-29T20:06:03.620Z,15.74
2023-03-29T20:16:03.830Z,15.70
2023-03-29T20:26:03.949Z,15.99
2023-03-29T20:36:04.210Z,15.97
2023-03-29T20:46:04.409Z,16.00
2023-03-29T20:56:04.495Z,16.23
2023-03-29T21:06:04.735Z,16.00
2023-03-29T21:16:04.945Z,15.96
2023-03-29T21:26:05.060Z,16.16
2023-03-29T21:36:05.288Z,16.25
2023-03-29T21:46:05.485Z,16.09
2023-03-29T21:56:05.510Z,16.12
2023-03-29T22:06:05.753Z,15.99
2023-03-29T22:16:05.955Z,16.22
2023-03-29T22:26:06.133Z,16.11
2023-03-29T22:36:06.232Z,16.07
2023-03-29T22:46:06.430Z,15.88
2023-03-29T22:56:06.525Z,15.97
2023-03-29T23:06:06.760Z,15.99
2023-03-29T23:16:06.950Z,16.01
2023-03-29T23:26:07.187Z,15.97
2023-03-29T23:36:07.415Z,15.99
2023-03-29T23:46:07.909Z,15.88
2023-03-29T23:56:07.853Z,15.94
